createdAt,value
2022-10-01T00:05:06.145Z,16.85
2022-10-01T00:10:13.340Z,18.75
2022-10-01T00:15:21.371Z,11.32
2022-10-01T00:20:27.214Z,16.00
2022-10-01T00:25:33.141Z,14.43
2022-10-01T00:30:40.387Z,14.00
2022-10-01T00:35:46.443Z,11.85
2022-10-01T00:40:52.878Z,8.77
2022-10-01T00:46:15.105Z,7.22
2022-10-01T00:51:22.837Z,10.88
2022-10-01T00:56:29.010Z,8.85
2022-10-01T01:01:37.638Z,14.13
2022-10-01T01:06:43.370Z,9.73
2022-10-01T01:11:53.197Z,8.38
2022-10-01T01:17:10.362Z,11.07
2022-10-01T01:22:17.978Z,9.70
2022-10-01T01:27:42.027Z,12.18
2022-10-01T01:33:06.738Z,12.38
2022-10-01T01:38:16.642Z,12.90
2022-10-01T01:43:28.970Z,13.48
2022-10-01T01:48:40.313Z,11.50
2022-10-01T01:53:47.152Z,10.27
2022-10-01T01:58:55.722Z,10.02
2022-10-01T02:04:02.698Z,9.70
2022-10-01T02:09:23.973Z,8.00
2022-10-01T02:14:56.588Z,5.60
2022-10-01T02:20:11.924Z,6.90
2022-10-01T02:25:26.115Z,8.73
2022-10-01T02:30:35.078Z,35.70
2022-10-01T02:35:41.336Z,8.50
2022-10-01T02:40:49.516Z,5.90
2022-10-01T02:46:01.910Z,4.68
2022-10-01T02:51:21.525Z,6.53
2022-10-01T02:56:48.987Z,5.82
2022-10-01T03:01:55.277Z,8.30
2022-10-01T03:07:05.477Z,6.75
2022-10-01T03:12:12.356Z,6.80
2022-10-01T03:17:18.806Z,7.78
2022-10-01T03:22:25.845Z,7.43
2022-10-01T03:27:31.442Z,7.38
2022-10-01T03:32:37.171Z,7.93
2022-10-01T03:37:42.990Z,14.60
2022-10-01T03:42:49.039Z,9.23
2022-10-01T03:47:55.647Z,10.30
2022-10-01T03:53:01.790Z,14.65
2022-10-01T03:58:07.864Z,5.78
2022-10-01T04:03:13.660Z,5.35
2022-10-01T04:08:24.108Z,5.00
2022-10-01T04:13:31.741Z,5.43
2022-10-01T04:18:37.944Z,7.45
2022-10-01T04:23:43.956Z,6.80
2022-10-01T04:28:49.762Z,5.65
2022-10-01T04:33:59.672Z,8.13
2022-10-01T04:39:05.472Z,5.80
2022-10-01T04:49:18.661Z,5.80
2022-10-01T04:54:26.334Z,8.80
2022-10-01T04:59:35.977Z,6.85
2022-10-01T05:04:45.824Z,7.70
2022-10-01T05:09:51.763Z,12.35
2022-10-01T05:14:58.340Z,7.85
2022-10-01T05:20:06.575Z,7.57
2022-10-01T05:25:12.096Z,6.45
2022-10-01T05:35:34.131Z,8.68
2022-10-01T05:40:40.389Z,7.47
2022-10-01T05:45:47.066Z,8.80
2022-10-01T05:50:53.524Z,8.00
2022-10-01T06:01:06.528Z,12.00
2022-10-01T06:06:12.199Z,7.10
2022-10-01T06:11:18.771Z,10.57
2022-10-01T06:16:24.766Z,10.50
2022-10-01T06:21:32.255Z,9.00
2022-10-01T06:26:38.862Z,6.25
2022-10-01T06:31:45.001Z,11.98
2022-10-01T06:36:50.782Z,9.68
2022-10-01T06:41:56.331Z,10.50
2022-10-01T06:47:02.447Z,11.25
2022-10-01T06:57:36.078Z,13.95
2022-10-01T07:02:42.503Z,12.10
2022-10-01T07:07:50.031Z,13.70
2022-10-01T07:12:56.000Z,12.15
2022-10-01T07:18:02.306Z,14.75
2022-10-01T07:23:10.542Z,7.55
2022-10-01T07:28:19.910Z,4.97
2022-10-01T07:33:25.706Z,5.47
2022-10-01T07:38:31.855Z,4.82
2022-10-01T07:43:38.286Z,3.50
2022-10-01T07:48:44.136Z,7.40
2022-10-01T07:53:50.112Z,4.40
2022-10-01T08:04:24.611Z,10.43
2022-10-01T08:09:30.478Z,7.30
2022-10-01T08:14:37.314Z,6.60
2022-10-01T08:19:43.409Z,2.33
2022-10-01T08:24:52.969Z,10.90
2022-10-01T08:29:58.661Z,3.00
2022-10-01T08:35:04.199Z,4.13
2022-10-01T08:40:11.256Z,1.95
2022-10-01T08:45:25.319Z,5.28
2022-10-01T08:50:55.779Z,3.42
2022-10-01T08:56:04.072Z,5.10
2022-10-01T09:01:12.351Z,5.13
2022-10-01T09:06:22.884Z,3.63
2022-10-01T09:11:50.640Z,5.03
2022-10-01T09:17:12.980Z,3.65
2022-10-01T09:22:46.669Z,5.05
2022-10-01T09:28:03.058Z,6.15
2022-10-01T09:33:37.088Z,3.72
2022-10-01T09:38:45.420Z,4.07
2022-10-01T09:43:51.179Z,7.13
2022-10-01T09:49:20.093Z,2.58
2022-10-01T09:54:38.928Z,5.97
2022-10-01T10:00:00.068Z,4.35
2022-10-01T10:05:12.985Z,7.25
2022-10-01T10:10:32.162Z,8.20
2022-10-01T10:15:43.076Z,7.80
2022-10-01T10:20:55.652Z,14.80
2022-10-01T10:26:06.116Z,13.00
2022-10-01T10:31:23.036Z,9.18
2022-10-01T10:36:37.528Z,13.23
2022-10-01T10:41:49.154Z,12.35
2022-10-01T10:47:01.561Z,11.63
2022-10-01T10:52:26.947Z,9.00
2022-10-01T10:57:35.915Z,12.67
2022-10-01T11:02:44.108Z,7.40
2022-10-01T11:07:55.560Z,9.02
2022-10-01T11:13:27.123Z,9.43
2022-10-01T11:18:58.321Z,7.25
2022-10-01T11:25:01.129Z,8.57
2022-10-01T11:30:28.369Z,7.82
2022-10-01T11:36:22.213Z,7.05
2022-10-01T11:41:37.478Z,6.18
2022-10-01T11:47:14.753Z,8.43
2022-10-01T11:52:29.552Z,5.85
2022-10-01T11:57:54.298Z,4.70
2022-10-01T12:03:04.644Z,6.85
2022-10-01T12:08:26.029Z,6.30
2022-10-01T12:13:46.557Z,8.18
2022-10-01T12:19:12.799Z,4.82
2022-10-01T12:24:38.172Z,7.23
2022-10-01T12:30:08.253Z,10.23
2022-10-01T12:35:37.716Z,9.07
2022-10-01T12:41:24.213Z,5.70
2022-10-01T12:47:09.481Z,6.07
2022-10-01T12:52:44.844Z,6.57
2022-10-01T12:58:20.140Z,5.22
2022-10-01T13:04:03.654Z,6.93
2022-10-01T13:09:27.256Z,8.40
2022-10-01T13:14:35.621Z,11.20
2022-10-01T13:20:25.580Z,7.40
2022-10-01T13:26:03.959Z,9.88
2022-10-01T13:31:18.170Z,8.85
2022-10-01T13:36:36.168Z,9.77
2022-10-01T13:41:44.579Z,6.78
2022-10-01T13:47:12.748Z,9.55
2022-10-01T13:52:24.055Z,8.20
2022-10-01T13:57:41.069Z,8.60
2022-10-01T14:03:23.133Z,8.68
2022-10-01T14:09:03.939Z,8.85
2022-10-01T14:14:55.734Z,10.85
2022-10-01T14:20:04.954Z,10.27
2022-10-01T14:25:33.347Z,12.70
2022-10-01T14:31:13.118Z,9.07
2022-10-01T14:36:43.132Z,14.68
2022-10-01T14:41:55.217Z,12.02
2022-10-01T14:47:02.574Z,14.13
2022-10-01T14:52:24.515Z,13.48
2022-10-01T14:57:40.693Z,13.65
2022-10-01T15:02:55.586Z,19.92
2022-10-01T15:08:42.674Z,21.25
2022-10-01T15:13:50.493Z,20.23
2022-10-01T15:19:31.391Z,17.45
2022-10-01T15:24:50.870Z,15.95
2022-10-01T15:30:00.670Z,26.65
2022-10-01T15:35:07.008Z,15.73
2022-10-01T15:40:36.287Z,24.38
2022-10-01T15:45:42.509Z,20.27
2022-10-01T15:51:04.029Z,13.23
2022-10-01T15:56:17.652Z,19.52
2022-10-01T16:01:30.731Z,22.38
2022-10-01T16:06:51.751Z,20.52
2022-10-01T16:12:14.177Z,21.80
2022-10-01T16:17:31.031Z,20.13
2022-10-01T16:22:39.289Z,16.55
2022-10-01T16:27:58.860Z,24.42
2022-10-01T16:33:12.530Z,16.52
2022-10-01T16:38:18.493Z,20.92
2022-10-01T16:43:25.980Z,31.15
2022-10-01T16:48:31.794Z,22.50
2022-10-01T16:58:44.907Z,21.53
2022-10-01T17:03:50.906Z,19.77
2022-10-01T17:08:56.742Z,20.25
2022-10-01T17:14:04.495Z,21.90
2022-10-01T17:19:10.282Z,21.85
2022-10-01T17:24:22.968Z,32.60
2022-10-01T17:29:28.666Z,18.73
2022-10-01T17:34:39.128Z,30.40
2022-10-01T17:39:49.586Z,23.63
2022-10-01T17:44:56.902Z,23.35
2022-10-01T17:50:09.642Z,21.73
2022-10-01T17:55:15.176Z,21.40
2022-10-01T18:00:21.197Z,13.68
2022-10-01T18:05:26.621Z,23.10
2022-10-01T18:10:31.856Z,24.33
2022-10-01T18:15:37.663Z,20.80
2022-10-01T18:25:48.048Z,25.90
2022-10-01T18:31:18.081Z,25.20
2022-10-01T18:36:53.738Z,26.75
2022-10-01T18:41:59.871Z,31.00
2022-10-01T18:47:15.985Z,28.73
2022-10-01T18:57:48.030Z,45.28
2022-10-01T19:03:34.303Z,38.97
2022-10-01T19:08:53.507Z,47.67
2022-10-01T19:14:30.340Z,52.63
2022-10-01T19:19:52.271Z,51.28
2022-10-01T19:25:04.273Z,52.10
2022-10-01T19:30:14.856Z,58.33
2022-10-01T19:35:29.664Z,42.45
2022-10-01T19:40:44.166Z,61.60
2022-10-01T19:46:08.617Z,54.17
2022-10-01T19:51:17.200Z,70.38
2022-10-01T19:56:29.384Z,69.70
2022-10-01T20:01:51.368Z,53.08
2022-10-01T20:07:05.770Z,56.65
2022-10-01T20:12:29.729Z,57.45
2022-10-01T20:18:14.897Z,55.17
2022-10-01T20:23:39.615Z,50.42
2022-10-01T20:28:53.837Z,45.95
2022-10-01T20:34:17.613Z,43.80
2022-10-01T20:39:36.800Z,36.70
2022-10-01T20:44:43.237Z,35.53
2022-10-01T20:50:09.850Z,37.53
2022-10-01T21:00:40.052Z,32.47
2022-10-01T21:05:55.780Z,28.33
2022-10-01T21:11:06.391Z,20.63
2022-10-01T21:16:26.781Z,16.65
2022-10-01T21:21:46.725Z,11.40
2022-10-01T21:27:22.575Z,10.68
2022-10-01T21:33:07.062Z,9.63
2022-10-01T21:38:44.873Z,9.02
2022-10-01T21:44:27.220Z,6.10
2022-10-01T21:50:00.952Z,4.25
2022-10-01T21:55:28.602Z,5.88
2022-10-01T22:00:34.615Z,4.07
2022-10-01T22:05:43.089Z,5.20
2022-10-01T22:11:09.503Z,3.13
2022-10-01T22:16:18.665Z,5.72
2022-10-01T22:21:43.338Z,3.42
2022-10-01T22:27:07.347Z,3.80
2022-10-01T22:32:18.082Z,3.08
2022-10-01T22:37:51.405Z,3.95
2022-10-01T22:43:08.719Z,2.42
2022-10-01T22:48:22.258Z,2.15
2022-10-01T22:53:38.899Z,1.33
2022-10-01T22:59:19.663Z,1.52
2022-10-01T23:04:53.440Z,2.05
2022-10-01T23:11:00.754Z,4.40
2022-10-01T23:16:18.338Z,3.00
2022-10-01T23:22:01.654Z,3.47
2022-10-01T23:27:37.648Z,3.45
2022-10-01T23:33:08.004Z,4.93
2022-10-01T23:38:36.548Z,2.75
2022-10-01T23:43:49.909Z,4.57
2022-10-01T23:49:04.383Z,5.65
2022-10-01T23:54:36.062Z,6.10
